createdAt,value
2023-05-02T00:01:21.041Z,101992.75
2023-05-02T00:03:47.897Z,101994.50
2023-05-02T00:06:14.587Z,101993.69
2023-05-02T00:08:41.045Z,101999.00
2023-05-02T00:11:07.411Z,101994.63
2023-05-02T00:13:33.898Z,102004.19
2023-05-02T00:16:00.490Z,102000.63
2023-05-02T00:18:26.923Z,102006.81
2023-05-02T00:20:54.535Z,102009.41
2023-05-02T00:23:20.901Z,102017.28
2023-05-02T00:25:47.443Z,102018.13
2023-05-02T00:28:13.936Z,102009.38
2023-05-02T00:30:46.980Z,102011.03
2023-05-02T00:33:15.073Z,102008.25
2023-05-02T00:35:42.121Z,102009.00
2023-05-02T00:38:08.859Z,102012.47
2023-05-02T00:40:49.577Z,102008.84
2023-05-02T00:43:16.254Z,102019.50
2023-05-02T00:45:44.678Z,102030.09
2023-05-02T00:48:11.508Z,102030.09
2023-05-02T00:50:40.564Z,102029.13
2023-05-02T00:53:08.122Z,102040.50
2023-05-02T00:55:35.054Z,102044.06
2023-05-02T00:58:05.320Z,102044.88
2023-05-02T01:01:08.275Z,102059.69
2023-05-02T01:03:50.090Z,102055.97
2023-05-02T01:06:32.066Z,102055.91
2023-05-02T01:09:17.529Z,102066.41
2023-05-02T01:12:06.317Z,102063.78
2023-05-02T01:14:42.146Z,102064.44
2023-05-02T01:17:13.130Z,102070.53
2023-05-02T01:19:46.255Z,102058.16
2023-05-02T01:22:14.491Z,102064.13
2023-05-02T01:25:06.141Z,102062.38
2023-05-02T01:27:52.173Z,102070.41
2023-05-02T01:30:21.103Z,102065.06
2023-05-02T01:32:48.514Z,102079.81
2023-05-02T01:35:17.043Z,102079.66
2023-05-02T01:37:46.832Z,102087.44
2023-05-02T01:40:19.411Z,102101.50
2023-05-02T01:42:48.543Z,102083.63
2023-05-02T01:45:16.487Z,102094.19
2023-05-02T01:47:45.711Z,102093.31
2023-05-02T01:50:16.701Z,102093.41
2023-05-02T01:52:45.534Z,102094.31
2023-05-02T01:55:15.325Z,102094.31
2023-05-02T01:57:44.317Z,102100.25
2023-05-02T02:00:12.799Z,102101.09
2023-05-02T02:02:43.747Z,102103.72
2023-05-02T02:05:11.096Z,102108.13
2023-05-02T02:07:37.959Z,102115.13
2023-05-02T02:10:04.990Z,102117.78
2023-05-02T02:12:38.642Z,102128.31
2023-05-02T02:15:19.579Z,102125.53
2023-05-02T02:17:58.005Z,102125.53
2023-05-02T02:20:26.682Z,102125.53
2023-05-02T02:22:53.451Z,102123.88
2023-05-02T02:25:20.288Z,102128.31
2023-05-02T02:27:48.558Z,102130.81
2023-05-02T02:30:16.489Z,102136.03
2023-05-02T02:32:42.978Z,102137.72
2023-05-02T02:35:10.638Z,102139.47
2023-05-02T02:38:03.063Z,102142.91
2023-05-02T02:40:29.394Z,102142.84
2023-05-02T02:43:16.002Z,102139.22
2023-05-02T02:46:07.774Z,102142.69
2023-05-02T02:49:12.652Z,102148.81
2023-05-02T02:52:02.747Z,102151.50
2023-05-02T02:54:35.384Z,102159.34
2023-05-02T02:57:06.324Z,102160.28
2023-05-02T02:59:38.249Z,102168.13
2023-05-02T03:02:11.703Z,102169.81
2023-05-02T03:04:44.868Z,102171.47
2023-05-02T03:07:11.717Z,102174.91
2023-05-02T03:09:45.974Z,102185.41
2023-05-02T03:12:12.711Z,102185.28
2023-05-02T03:14:39.926Z,102187.84
2023-05-02T03:17:08.324Z,102184.19
2023-05-02T03:19:34.924Z,102188.47
2023-05-02T03:22:01.357Z,102184.00
2023-05-02T03:24:27.798Z,102205.03
2023-05-02T03:26:59.108Z,102194.47
2023-05-02T03:29:26.539Z,102205.03
2023-05-02T03:31:52.999Z,102209.44
2023-05-02T03:34:21.822Z,102199.72
2023-05-02T03:36:48.314Z,102213.81
2023-05-02T03:39:15.607Z,102221.66
2023-05-02T03:41:43.697Z,102225.88
2023-05-02T03:44:10.050Z,102222.28
2023-05-02T03:46:36.744Z,102223.91
2023-05-02T03:49:03.205Z,102229.06
2023-05-02T03:51:29.579Z,102232.59
2023-05-02T03:53:56.030Z,102229.06
2023-05-02T03:56:23.108Z,102228.22
2023-05-02T03:58:49.496Z,102231.81
2023-05-02T04:01:16.787Z,102229.25
2023-05-02T04:03:43.961Z,102228.50
2023-05-02T04:06:10.763Z,102235.38
2023-05-02T04:08:37.189Z,102231.81
2023-05-02T04:11:03.694Z,102240.72
2023-05-02T04:13:30.217Z,102238.16
2023-05-02T04:15:56.649Z,102248.75
2023-05-02T04:18:23.091Z,102246.88
2023-05-02T04:20:50.200Z,102249.50
2023-05-02T04:23:18.078Z,102254.66
2023-05-02T04:25:54.820Z,102260.72
2023-05-02T04:28:24.701Z,102264.25
2023-05-02T04:30:51.606Z,102255.28
2023-05-02T04:33:18.721Z,102272.06
2023-05-02T04:35:45.266Z,102282.56
2023-05-02T04:38:11.658Z,102276.50
2023-05-02T04:40:38.289Z,102285.28
2023-05-02T04:43:04.964Z,102293.34
2023-05-02T04:45:31.461Z,102295.84
2023-05-02T04:47:58.175Z,102298.31
2023-05-02T04:50:24.652Z,102305.38
2023-05-02T04:52:51.179Z,102310.81
2023-05-02T04:55:19.093Z,102318.03
2023-05-02T04:57:45.431Z,102315.47
2023-05-02T05:00:12.431Z,102315.50
2023-05-02T05:02:41.728Z,102319.78
2023-05-02T05:05:08.342Z,102319.66
2023-05-02T05:07:34.921Z,102329.22
2023-05-02T05:10:01.739Z,102330.19
2023-05-02T05:12:28.531Z,102334.56
2023-05-02T05:14:54.918Z,102343.38
2023-05-02T05:17:21.547Z,102341.50
2023-05-02T05:19:48.004Z,102347.56
2023-05-02T05:22:18.465Z,102349.16
2023-05-02T05:24:51.868Z,102353.44
2023-05-02T05:27:18.226Z,102352.66
2023-05-02T05:29:44.598Z,102357.13
2023-05-02T05:32:11.014Z,102358.97
2023-05-02T05:34:37.638Z,102361.59
2023-05-02T05:37:04.141Z,102360.78
2023-05-02T05:39:30.716Z,102367.94
2023-05-02T05:42:00.655Z,102367.22
2023-05-02T05:44:27.085Z,102370.91
2023-05-02T05:46:53.543Z,102378.94
2023-05-02T05:49:21.899Z,102377.25
2023-05-02T05:51:50.535Z,102379.97
2023-05-02T05:54:17.588Z,102388.59
2023-05-02T05:56:45.913Z,102393.78
2023-05-02T05:59:12.590Z,102399.69
2023-05-02T06:01:39.195Z,102396.22
2023-05-02T06:04:10.501Z,102402.41
2023-05-02T06:06:40.072Z,102405.25
2023-05-02T06:09:09.308Z,102407.97
2023-05-02T06:11:37.727Z,102411.63
2023-05-02T06:14:04.115Z,102417.75
2023-05-02T06:16:30.594Z,102421.34
2023-05-02T06:18:57.044Z,102426.59
2023-05-02T06:21:25.814Z,102432.69
2023-05-02T06:23:52.743Z,102436.25
2023-05-02T06:26:20.214Z,102437.06
2023-05-02T06:28:46.644Z,102447.38
2023-05-02T06:31:13.157Z,102448.28
2023-05-02T06:33:42.876Z,102463.06
2023-05-02T06:36:09.275Z,102459.63
2023-05-02T06:38:35.788Z,102464.91
2023-05-02T06:41:02.225Z,102459.38
2023-05-02T06:43:28.810Z,102463.88
2023-05-02T06:45:58.760Z,102476.06
2023-05-02T06:48:25.288Z,102479.44
2023-05-02T06:50:53.958Z,102482.94
2023-05-02T06:53:20.489Z,102488.31
2023-05-02T06:55:48.468Z,102503.78
2023-05-02T06:58:14.904Z,102510.50
2023-05-02T07:00:42.196Z,102512.13
2023-05-02T07:03:11.020Z,102517.22
2023-05-02T07:05:37.402Z,102521.72
2023-05-02T07:08:06.296Z,102519.88
2023-05-02T07:10:32.676Z,102525.31
2023-05-02T07:12:59.136Z,102527.16
2023-05-02T07:15:30.303Z,102526.28
2023-05-02T07:17:56.672Z,102535.19
2023-05-02T07:20:23.176Z,102536.97
2023-05-02T07:22:49.748Z,102541.34
2023-05-02T07:25:16.257Z,102540.63
2023-05-02T07:27:50.271Z,102539.91
2023-05-02T07:30:16.758Z,102533.63
2023-05-02T07:32:43.204Z,102542.47
2023-05-02T07:35:09.664Z,102542.56
2023-05-02T07:37:36.427Z,102543.72
2023-05-02T07:40:03.936Z,102540.41
2023-05-02T07:42:31.640Z,102544.84
2023-05-02T07:44:59.233Z,102552.53
2023-05-02T07:47:26.597Z,102548.78
2023-05-02T07:49:54.259Z,102559.31
2023-05-02T07:52:20.838Z,102561.22
2023-05-02T07:54:50.462Z,102556.19
2023-05-02T07:57:17.391Z,102559.97
2023-05-02T07:59:43.923Z,102559.47
2023-05-02T08:02:11.282Z,102562.47
2023-05-02T08:04:37.860Z,102557.47
2023-05-02T08:07:04.322Z,102555.69
2023-05-02T08:09:34.109Z,102560.66
2023-05-02T08:12:02.544Z,102561.84
2023-05-02T08:14:29.430Z,102559.50
2023-05-02T08:16:55.853Z,102567.81
2023-05-02T08:19:22.293Z,102573.13
2023-05-02T08:21:49.093Z,102581.97
2023-05-02T08:24:15.607Z,102573.16
2023-05-02T08:26:42.260Z,102580.34
2023-05-02T08:29:11.490Z,102578.00
2023-05-02T08:31:40.066Z,102583.47
2023-05-02T08:34:06.902Z,102594.19
2023-05-02T08:36:33.544Z,102588.09
2023-05-02T08:39:00.004Z,102594.47
2023-05-02T08:41:29.624Z,102596.50
2023-05-02T08:44:02.493Z,102593.03
2023-05-02T08:46:30.833Z,102599.72
2023-05-02T08:49:01.194Z,102602.78
2023-05-02T08:51:29.824Z,102607.16
2023-05-02T08:53:57.370Z,102599.72
2023-05-02T08:56:25.277Z,102611.00
2023-05-02T08:58:51.803Z,102607.91
2023-05-02T09:01:21.780Z,102611.84
2023-05-02T09:03:48.810Z,102608.09
2023-05-02T09:06:17.804Z,102622.34
2023-05-02T09:08:46.258Z,102631.50
2023-05-02T09:11:13.585Z,102639.00
2023-05-02T09:13:44.873Z,102645.72
2023-05-02T09:16:13.658Z,102635.53
2023-05-02T09:18:44.429Z,102639.34
2023-05-02T09:21:13.194Z,102629.03
2023-05-02T09:23:47.639Z,102637.53
2023-05-02T09:26:23.349Z,102641.25
2023-05-02T09:28:51.874Z,102635.09
2023-05-02T09:31:43.845Z,102644.84
2023-05-02T09:34:10.634Z,102649.34
2023-05-02T09:36:51.221Z,102658.22
2023-05-02T09:39:22.397Z,102661.19
2023-05-02T09:41:49.466Z,102657.69
2023-05-02T09:44:20.642Z,102661.06
2023-05-02T09:46:49.541Z,102667.03
2023-05-02T09:49:18.932Z,102662.72
2023-05-02T09:51:49.364Z,102660.06
2023-05-02T09:54:37.021Z,102657.50
2023-05-02T09:57:04.601Z,102659.00
2023-05-02T09:59:32.611Z,102661.88
2023-05-02T10:02:01.488Z,102665.38
2023-05-02T10:04:30.422Z,102666.03
2023-05-02T10:06:57.492Z,102673.00
2023-05-02T10:09:25.743Z,102662.38
2023-05-02T10:11:54.350Z,102672.13
2023-05-02T10:14:23.228Z,102666.31
2023-05-02T10:17:01.591Z,102680.28
2023-05-02T10:19:41.823Z,102683.19
2023-05-02T10:22:08.977Z,102693.97
2023-05-02T10:24:36.502Z,102685.25
2023-05-02T10:27:04.701Z,102689.44
2023-05-02T10:29:32.152Z,102683.84
2023-05-02T10:32:00.804Z,102683.97
2023-05-02T10:34:27.866Z,102693.91
2023-05-02T10:37:01.230Z,102688.34
2023-05-02T10:39:28.974Z,102696.34
2023-05-02T10:41:58.044Z,102688.50
2023-05-02T10:44:38.705Z,102697.56
2023-05-02T10:47:25.284Z,102698.94
2023-05-02T10:50:04.620Z,102692.94
2023-05-02T10:52:35.754Z,102702.78
2023-05-02T10:55:22.021Z,102696.38
2023-05-02T10:57:57.679Z,102696.41
2023-05-02T11:00:32.502Z,102699.25
2023-05-02T11:03:00.280Z,102703.63
2023-05-02T11:05:28.189Z,102702.03
2023-05-02T11:08:20.201Z,102697.72
2023-05-02T11:10:48.657Z,102701.28
2023-05-02T11:13:15.577Z,102703.91
2023-05-02T11:15:42.362Z,102712.66
2023-05-02T11:18:12.232Z,102707.16
2023-05-02T11:20:43.476Z,102716.16
2023-05-02T11:23:17.319Z,102709.28
2023-05-02T11:25:44.738Z,102704.13
2023-05-02T11:28:33.189Z,102714.00
2023-05-02T11:31:00.406Z,102710.31
2023-05-02T11:33:29.077Z,102714.66
2023-05-02T11:35:58.148Z,102716.41
2023-05-02T11:38:28.764Z,102720.94
2023-05-02T11:40:57.686Z,102721.06
2023-05-02T11:43:26.124Z,102718.66
2023-05-02T11:45:53.949Z,102716.88
2023-05-02T11:48:22.694Z,102712.50
2023-05-02T11:50:51.040Z,102717.97
2023-05-02T11:53:22.318Z,102734.81
2023-05-02T11:56:01.231Z,102734.03
2023-05-02T11:58:30.176Z,102729.53
2023-05-02T12:00:57.206Z,102736.66
2023-05-02T12:03:32.558Z,102738.41
2023-05-02T12:06:13.545Z,102736.59
2023-05-02T12:08:42.345Z,102736.59
2023-05-02T12:11:09.401Z,102750.81
2023-05-02T12:13:45.058Z,102734.06
2023-05-02T12:16:11.610Z,102744.75
2023-05-02T12:18:38.421Z,102736.03
2023-05-02T12:21:09.365Z,102747.72
2023-05-02T12:23:37.431Z,102741.47
2023-05-02T12:26:25.585Z,102741.34
2023-05-02T12:28:54.942Z,102744.97
2023-05-02T12:31:22.435Z,102745.94
2023-05-02T12:33:50.797Z,102753.97
2023-05-02T12:36:18.465Z,102758.41
2023-05-02T12:38:53.830Z,102760.22
2023-05-02T12:41:45.813Z,102765.53
2023-05-02T12:44:12.224Z,102767.16
2023-05-02T12:46:58.805Z,102773.31
2023-05-02T12:49:27.763Z,102787.41
2023-05-02T12:51:57.447Z,102781.19
2023-05-02T12:54:24.781Z,102766.94
2023-05-02T12:56:52.177Z,102772.34
2023-05-02T12:59:34.092Z,102778.72
2023-05-02T13:02:00.533Z,102777.88
2023-05-02T13:04:42.177Z,102770.75
2023-05-02T13:07:08.620Z,102778.78
2023-05-02T13:09:35.043Z,102768.19
2023-05-02T13:12:03.721Z,102779.69
2023-05-02T13:14:30.401Z,102769.94
2023-05-02T13:16:57.147Z,102777.88
2023-05-02T13:19:23.628Z,102784.06
2023-05-02T13:21:50.043Z,102776.81
2023-05-02T13:24:20.749Z,102770.50
2023-05-02T13:26:47.201Z,102782.97
2023-05-02T13:29:13.664Z,102783.84
2023-05-02T13:31:40.277Z,102774.84
2023-05-02T13:34:07.084Z,102783.69
2023-05-02T13:36:40.641Z,102782.84
2023-05-02T13:39:09.657Z,102799.59
2023-05-02T13:41:37.309Z,102801.25
2023-05-02T13:44:03.953Z,102794.97
2023-05-02T13:46:36.148Z,102797.56
2023-05-02T13:49:08.498Z,102785.16
2023-05-02T13:51:34.925Z,102783.53
2023-05-02T13:54:02.207Z,102801.31
2023-05-02T13:56:28.655Z,102810.19
2023-05-02T13:59:00.141Z,102804.81
2023-05-02T14:01:28.219Z,102806.41
2023-05-02T14:03:54.825Z,102816.19
2023-05-02T14:06:21.454Z,102802.84
2023-05-02T14:08:48.010Z,102801.63
2023-05-02T14:11:14.453Z,102807.63
2023-05-02T14:13:40.875Z,102804.06
2023-05-02T14:16:07.748Z,102805.81
2023-05-02T14:18:34.219Z,102794.31
2023-05-02T14:21:00.994Z,102791.69
2023-05-02T14:23:30.229Z,102797.00
2023-05-02T14:25:56.751Z,102779.03
2023-05-02T14:28:23.379Z,102800.28
2023-05-02T14:30:52.636Z,102794.19
2023-05-02T14:33:19.232Z,102812.03
2023-05-02T14:35:45.893Z,102810.22
2023-05-02T14:38:12.441Z,102811.06
2023-05-02T14:40:39.010Z,102797.75
2023-05-02T14:43:08.046Z,102809.28
2023-05-02T14:45:34.802Z,102801.25
2023-05-02T14:48:02.064Z,102811.84
2023-05-02T14:50:28.650Z,102814.38
2023-05-02T14:52:58.201Z,102808.03
2023-05-02T14:55:40.153Z,102807.00
2023-05-02T14:58:10.948Z,102805.94
2023-05-02T15:00:38.281Z,102806.53
2023-05-02T15:03:08.090Z,102806.47
2023-05-02T15:05:38.820Z,102799.31
2023-05-02T15:08:05.671Z,102808.94
2023-05-02T15:10:34.521Z,102804.50
2023-05-02T15:13:00.989Z,102808.94
2023-05-02T15:15:27.341Z,102804.38
2023-05-02T15:17:53.768Z,102800.53
2023-05-02T15:20:20.518Z,102801.28
2023-05-02T15:22:47.120Z,102810.03
2023-05-02T15:25:13.746Z,102808.09
2023-05-02T15:27:40.312Z,102807.09
2023-05-02T15:30:07.462Z,102804.34
2023-05-02T15:32:34.013Z,102806.84
2023-05-02T15:35:00.470Z,102801.50
2023-05-02T15:37:26.958Z,102800.56
2023-05-02T15:39:53.446Z,102803.22
2023-05-02T15:42:20.018Z,102807.84
2023-05-02T15:44:49.227Z,102812.19
2023-05-02T15:47:15.671Z,102816.16
2023-05-02T15:49:42.638Z,102808.06
2023-05-02T15:52:09.096Z,102815.13
2023-05-02T15:54:35.522Z,102806.25
2023-05-02T15:57:03.174Z,102805.38
2023-05-02T15:59:29.719Z,102808.84
2023-05-02T16:01:59.137Z,102814.13
2023-05-02T16:04:25.589Z,102814.91
2023-05-02T16:06:52.151Z,102814.91
2023-05-02T16:09:18.909Z,102826.53
2023-05-02T16:11:45.484Z,102819.38
2023-05-02T16:14:11.887Z,102821.09
2023-05-02T16:16:38.469Z,102825.50
2023-05-02T16:19:04.920Z,102825.41
2023-05-02T16:21:31.604Z,102831.63
2023-05-02T16:23:58.314Z,102816.31
2023-05-02T16:26:24.725Z,102815.44
2023-05-02T16:28:51.120Z,102812.59
2023-05-02T16:31:17.712Z,102820.56
2023-05-02T16:33:44.221Z,102824.06
2023-05-02T16:36:11.000Z,102826.59
2023-05-02T16:38:37.476Z,102820.53
2023-05-02T16:41:05.601Z,102830.25
2023-05-02T16:43:32.185Z,102833.78
2023-05-02T16:46:02.572Z,102828.41
2023-05-02T16:48:29.332Z,102816.78
2023-05-02T16:50:57.142Z,102821.91
2023-05-02T16:53:26.712Z,102825.38
2023-05-02T16:55:53.927Z,102839.19
2023-05-02T16:58:20.543Z,102841.59
2023-05-02T17:00:47.062Z,102845.78
2023-05-02T17:03:13.647Z,102840.50
2023-05-02T17:05:40.335Z,102832.69
2023-05-02T17:08:08.192Z,102843.41
2023-05-02T17:10:35.573Z,102844.22
2023-05-02T17:13:05.404Z,102830.81
2023-05-02T17:15:38.455Z,102837.94
2023-05-02T17:18:05.156Z,102840.50
2023-05-02T17:20:32.208Z,102838.56
2023-05-02T17:23:00.381Z,102835.03
2023-05-02T17:25:26.836Z,102838.28
2023-05-02T17:27:53.342Z,102842.53
2023-05-02T17:30:19.916Z,102830.13
2023-05-02T17:32:46.584Z,102842.38
2023-05-02T17:35:14.352Z,102835.34
2023-05-02T17:37:41.022Z,102849.44
2023-05-02T17:40:08.166Z,102848.56
2023-05-02T17:42:34.647Z,102857.13
2023-05-02T17:45:01.104Z,102867.41
2023-05-02T17:47:27.506Z,102853.81
2023-05-02T17:49:54.155Z,102854.56
2023-05-02T17:52:21.310Z,102848.44
2023-05-02T17:54:47.760Z,102850.19
2023-05-02T17:57:14.617Z,102843.94
2023-05-02T17:59:41.503Z,102840.31
2023-05-02T18:02:10.170Z,102851.72
2023-05-02T18:04:37.214Z,102857.06
2023-05-02T18:07:06.018Z,102855.50
2023-05-02T18:09:32.747Z,102855.50
2023-05-02T18:12:04.279Z,102861.56
2023-05-02T18:14:30.829Z,102873.63
2023-05-02T18:16:57.342Z,102872.38
2023-05-02T18:19:23.991Z,102876.56
2023-05-02T18:21:50.406Z,102879.06
2023-05-02T18:24:16.913Z,102869.00
2023-05-02T18:26:48.094Z,102873.16
2023-05-02T18:29:14.662Z,102882.69
2023-05-02T18:31:42.040Z,102869.28
2023-05-02T18:34:08.598Z,102878.00
2023-05-02T18:36:41.131Z,102878.72
2023-05-02T18:39:08.099Z,102867.91
2023-05-02T18:41:34.502Z,102867.75
2023-05-02T18:44:01.021Z,102865.81
2023-05-02T18:46:27.589Z,102875.34
2023-05-02T18:48:54.053Z,102883.97
2023-05-02T18:51:20.793Z,102883.88
2023-05-02T18:53:52.252Z,102884.63
2023-05-02T18:56:18.782Z,102888.81
2023-05-02T18:58:57.445Z,102891.28
2023-05-02T19:01:24.438Z,102885.06
2023-05-02T19:03:53.531Z,102882.31
2023-05-02T19:06:21.257Z,102896.28
2023-05-02T19:08:49.720Z,102889.09
2023-05-02T19:11:16.257Z,102881.94
2023-05-02T19:13:43.911Z,102889.69
2023-05-02T19:16:12.658Z,102893.13
2023-05-02T19:18:43.479Z,102895.41
2023-05-02T19:21:13.865Z,102893.53
2023-05-02T19:23:41.431Z,102896.06
2023-05-02T19:26:12.339Z,102898.59
2023-05-02T19:28:39.468Z,102902.94
2023-05-02T19:31:10.469Z,102904.50
2023-05-02T19:33:38.125Z,102899.25
2023-05-02T19:36:07.871Z,102899.25
2023-05-02T19:38:36.285Z,102908.81
2023-05-02T19:41:03.006Z,102909.56
2023-05-02T19:43:29.717Z,102900.59
2023-05-02T19:45:57.444Z,102901.31
2023-05-02T19:48:23.984Z,102908.03
2023-05-02T19:50:50.564Z,102907.09
2023-05-02T19:53:17.065Z,102908.72
2023-05-02T19:55:43.501Z,102911.28
2023-05-02T19:58:10.083Z,102905.88
2023-05-02T20:00:36.758Z,102907.63
2023-05-02T20:03:04.622Z,102924.28
2023-05-02T20:05:31.289Z,102916.28
2023-05-02T20:07:57.709Z,102921.50
2023-05-02T20:10:24.128Z,102922.34
2023-05-02T20:12:50.656Z,102923.06
2023-05-02T20:15:17.080Z,102925.47
2023-05-02T20:17:43.593Z,102936.78
2023-05-02T20:20:11.461Z,102937.63
2023-05-02T20:22:40.997Z,102937.56
2023-05-02T20:25:09.662Z,102933.97
2023-05-02T20:27:36.079Z,102935.59
2023-05-02T20:30:02.732Z,102941.59
2023-05-02T20:32:29.436Z,102942.41
2023-05-02T20:34:56.007Z,102950.41
2023-05-02T20:37:22.500Z,102953.00
2023-05-02T20:39:48.888Z,102958.31
2023-05-02T20:42:23.731Z,102963.53
2023-05-02T20:45:01.623Z,102951.97
2023-05-02T20:47:30.420Z,102965.38
2023-05-02T20:49:57.156Z,102961.00
2023-05-02T20:52:23.844Z,102961.13
2023-05-02T20:54:53.567Z,102963.69
2023-05-02T20:57:20.124Z,102964.66
2023-05-02T20:59:46.767Z,102955.00
2023-05-02T21:02:13.212Z,102952.34
2023-05-02T21:04:40.958Z,102950.69
2023-05-02T21:07:07.823Z,102948.03
2023-05-02T21:09:34.480Z,102946.31
2023-05-02T21:12:02.488Z,102951.75
2023-05-02T21:14:31.603Z,102957.06
2023-05-02T21:16:58.335Z,102951.00
2023-05-02T21:19:25.381Z,102953.63
2023-05-02T21:22:06.905Z,102951.84
2023-05-02T21:24:35.740Z,102946.59
2023-05-02T21:27:02.342Z,102933.38
2023-05-02T21:29:28.737Z,102929.84
2023-05-02T21:31:55.273Z,102934.22
2023-05-02T21:34:24.092Z,102933.16
2023-05-02T21:36:53.428Z,102940.94
2023-05-02T21:39:22.204Z,102941.75
2023-05-02T21:41:53.052Z,102941.59
2023-05-02T21:44:19.576Z,102947.47
2023-05-02T21:46:47.025Z,102943.94
2023-05-02T21:49:13.585Z,102942.13
2023-05-02T21:51:40.613Z,102946.47
2023-05-02T21:54:10.179Z,102950.66
2023-05-02T21:56:36.748Z,102947.81
2023-05-02T21:59:03.397Z,102946.84
2023-05-02T22:01:30.020Z,102928.19
2023-05-02T22:03:57.979Z,102923.63
2023-05-02T22:06:25.106Z,102932.31
2023-05-02T22:08:51.963Z,102926.03
2023-05-02T22:11:18.431Z,102920.53
2023-05-02T22:13:44.861Z,102921.25
2023-05-02T22:16:11.418Z,102922.72
2023-05-02T22:18:37.890Z,102915.47
2023-05-02T22:21:04.454Z,102911.72
2023-05-02T22:23:31.128Z,102923.00
2023-05-02T22:25:57.725Z,102920.19
2023-05-02T22:28:24.245Z,102910.31
2023-05-02T22:30:50.611Z,102916.34
2023-05-02T22:33:16.996Z,102922.28
2023-05-02T22:38:23.852Z,102929.16
2023-05-02T22:40:50.408Z,102924.66
2023-05-02T22:43:17.369Z,102935.94
2023-05-02T22:45:43.826Z,102935.69
2023-05-02T22:48:10.291Z,102933.63
2023-05-02T22:50:37.458Z,102929.00
2023-05-02T22:53:04.198Z,102935.78
2023-05-02T22:55:30.789Z,102938.16
2023-05-02T22:57:57.954Z,102937.91
2023-05-02T23:00:25.153Z,102947.59
2023-05-02T23:02:52.005Z,102942.19
2023-05-02T23:05:18.848Z,102947.31
2023-05-02T23:07:45.457Z,102939.31
2023-05-02T23:10:12.158Z,102931.19
2023-05-02T23:12:44.923Z,102937.38
2023-05-02T23:15:11.788Z,102935.31
2023-05-02T23:17:42.276Z,102946.00
2023-05-02T23:20:10.334Z,102932.00
2023-05-02T23:22:45.105Z,102939.81
2023-05-02T23:25:12.891Z,102947.41
2023-05-02T23:27:39.422Z,102948.03
2023-05-02T23:30:07.741Z,102952.16
2023-05-02T23:32:36.347Z,102965.16
2023-05-02T23:35:04.196Z,102969.44
2023-05-02T23:37:40.867Z,102967.50
2023-05-02T23:40:13.455Z,102961.06
2023-05-02T23:42:42.922Z,102973.56
2023-05-02T23:45:15.821Z,102981.28
2023-05-02T23:47:42.717Z,102979.25
2023-05-02T23:50:09.525Z,102979.81
2023-05-02T23:52:35.898Z,102970.78
2023-05-02T23:55:02.380Z,102977.41
2023-05-02T23:57:31.943Z,102975.44
2023-05-02T23:59:59.386Z,102981.28
